Time;durP1;ratioP1;P1;durP2;ratioP2;P2;SDS_P1;SDS_P2;PMS_P1;PMS_P2;Temp;Humidity;BMP_temperature;BMP_pressure;BME280_temperature;BME280_humidity;BME280_pressure;Samples;Min_cycle;Max_cycle;Signal;HPM_P1;HPM_P2
2021/04/06 00:00:27;;;;;;;3.75;1.80;;;;;;;26.06;28.35;96297.63;5063473;27;20048;-25
2021/04/06 00:02:55;;;;;;;2.85;1.60;;;;;;;26.07;28.45;96301.06;5063957;28;20040;-26
2021/04/06 00:05:20;;;;;;;3.08;1.35;;;;;;;26.06;28.35;96295.00;5048588;28;20082;-29
2021/04/06 00:07:46;;;;;;;3.10;1.70;;;;;;;26.05;28.37;96293.28;5049079;28;20620;-28
2021/04/06 00:10:22;;;;;;;4.50;1.75;;;;;;;26.06;28.48;96294.13;5062312;28;20031;-26
2021/04/06 00:12:49;;;;;;;3.40;2.15;;;;;;;26.05;28.43;96293.28;5048937;28;20047;-25
2021/04/06 00:15:15;;;;;;;6.15;1.63;;;;;;;26.05;28.48;96287.22;5063804;27;20160;-27
2021/04/06 00:17:42;;;;;;;3.20;1.60;;;;;;;26.04;28.38;96296.84;5060957;28;20142;-23
2021/04/06 00:20:08;;;;;;;5.65;1.88;;;;;;;26.05;28.28;96288.03;5065390;28;20046;-27
2021/04/06 00:22:33;;;;;;;4.68;1.60;;;;;;;26.05;28.36;96282.78;5067768;28;20320;-26
2021/04/06 00:24:59;;;;;;;3.38;1.65;;;;;;;26.06;28.35;96297.63;5045975;28;20029;-25
2021/04/06 00:27:33;;;;;;;3.40;1.58;;;;;;;26.06;28.34;96295.00;5065982;28;20028;-21
2021/04/06 00:30:05;;;;;;;2.88;1.30;;;;;;;26.06;28.29;96294.13;5064079;28;20111;-26
2021/04/06 00:32:31;;;;;;;3.38;1.48;;;;;;;26.05;28.24;96293.28;5066449;28;20063;-21
2021/04/06 00:35:00;;;;;;;2.95;1.38;;;;;;;26.05;28.39;96293.28;5057970;28;20020;-26
2021/04/06 00:37:26;;;;;;;3.40;1.73;;;;;;;26.05;28.24;96295.91;5064162;28;20028;-24
2021/04/06 00:39:59;;;;;;;4.03;1.48;;;;;;;26.04;28.32;96291.59;5066056;28;20028;-27
2021/04/06 00:42:26;;;;;;;2.75;1.27;;;;;;;26.04;28.32;96290.75;5066528;28;20590;-24
2021/04/06 00:44:53;;;;;;;4.60;1.55;;;;;;;26.04;28.37;96298.63;5066209;28;20031;-24
2021/04/06 00:47:26;;;;;;;3.60;1.20;;;;;;;26.04;28.34;96291.59;5062137;28;20048;-26
2021/04/06 00:49:55;;;;;;;2.08;1.20;;;;;;;26.04;28.20;96288.13;5063149;28;20109;-25
2021/04/06 00:52:21;;;;;;;4.20;1.42;;;;;;;26.04;28.28;96301.25;5070538;28;20036;-26
2021/04/06 00:54:51;;;;;;;2.75;1.48;;;;;;;26.04;28.42;96296.84;5064967;28;20035;-25
2021/04/06 00:57:16;;;;;;;2.35;1.13;;;;;;;26.03;28.18;96297.81;5062978;28;20020;-23
2021/04/06 01:00:08;;;;;;;3.45;1.35;;;;;;;26.03;28.18;96303.06;5068876;28;20035;-28
2021/04/06 01:02:33;;;;;;;3.28;1.20;;;;;;;26.02;28.40;96304.00;5070033;28;20070;-23
2021/04/06 01:04:59;;;;;;;2.55;1.05;;;;;;;26.02;28.26;96309.25;5068880;28;20704;-28
2021/04/06 01:07:24;;;;;;;4.00;1.35;;;;;;;26.02;28.28;96303.16;5068993;28;20043;-22
2021/04/06 01:09:50;;;;;;;4.22;1.50;;;;;;;26.01;28.28;96307.53;5063176;28;20053;-22
2021/04/06 01:12:23;;;;;;;2.60;1.33;;;;;;;26.01;28.23;96302.28;5071787;28;20103;-26
2021/04/06 01:14:49;;;;;;;3.45;1.40;;;;;;;26.01;28.22;96312.78;5068753;28;20050;-21
2021/04/06 01:17:23;;;;;;;3.55;1.00;;;;;;;26.01;28.21;96304.09;5067646;28;20044;-26
2021/04/06 01:19:49;;;;;;;1.35;0.88;;;;;;;26.01;28.26;96302.28;5070212;28;20036;-27
2021/04/06 01:22:15;;;;;;;2.65;1.00;;;;;;;26.00;28.30;96295.34;5066731;28;20059;-26
2021/04/06 01:24:41;;;;;;;1.85;1.08;;;;;;;26.01;28.09;96296.22;5065097;28;20028;-26
2021/04/06 01:27:08;;;;;;;1.85;1.10;;;;;;;25.99;28.15;96291.06;5065584;28;20019;-27
2021/04/06 01:29:34;;;;;;;2.10;1.20;;;;;;;26.00;28.21;96289.28;5068607;28;20036;-21
2021/04/06 01:31:59;;;;;;;2.42;1.00;;;;;;;26.00;28.27;96290.09;5065466;27;20320;-25
2021/04/06 01:34:25;;;;;;;2.97;1.10;;;;;;;25.99;28.22;96296.31;5066228;28;20032;-26
2021/04/06 01:36:55;;;;;;;3.83;1.08;;;;;;;25.99;28.19;96298.94;5045508;28;20020;-26
2021/04/06 01:39:22;;;;;;;1.83;0.90;;;;;;;25.98;28.16;96294.63;5069873;28;20039;-24
2021/04/06 01:41:49;;;;;;;2.45;0.90;;;;;;;25.99;28.09;96291.06;5066864;28;20981;-26
2021/04/06 01:44:15;;;;;;;2.55;0.98;;;;;;;25.97;27.96;96298.16;5068182;28;20023;-27
2021/04/06 01:46:45;;;;;;;3.10;0.82;;;;;;;25.98;28.16;96286.75;5065404;28;20058;-25
2021/04/06 01:49:15;;;;;;;1.80;0.80;;;;;;;25.97;28.20;96279.78;5068660;28;20197;-27
2021/04/06 01:51:41;;;;;;;1.60;0.98;;;;;;;25.95;28.27;96279.91;5065515;28;20031;-24
2021/04/06 01:54:08;;;;;;;2.53;1.05;;;;;;;25.97;28.00;96279.78;5064799;28;20036;-24
2021/04/06 01:56:38;;;;;;;3.45;1.10;;;;;;;25.96;28.22;96278.97;5068239;28;20439;-22
2021/04/06 01:59:07;;;;;;;1.38;0.88;;;;;;;25.97;28.06;96279.78;5066940;28;20783;-22
2021/04/06 02:01:33;;;;;;;1.30;0.73;;;;;;;25.96;28.11;96272.84;5069179;27;20044;-25
2021/04/06 02:04:06;;;;;;;2.00;1.00;;;;;;;25.97;28.00;96271.91;5070327;28;20738;-26
2021/04/06 02:06:34;;;;;;;1.70;0.85;;;;;;;25.97;27.97;96271.91;5068933;28;20515;-28
2021/04/06 02:09:00;;;;;;;3.60;0.98;;;;;;;25.96;28.08;96268.47;5068741;28;20055;-25
2021/04/06 02:11:26;;;;;;;3.20;0.80;;;;;;;25.95;28.14;96266.78;5063669;28;20065;-24
2021/04/06 02:13:52;;;;;;;3.63;0.75;;;;;;;25.96;27.95;96264.97;5066749;28;20032;-26
2021/04/06 02:16:17;;;;;;;3.28;0.98;;;;;;;25.95;27.95;96269.41;5087267;27;20047;-22
2021/04/06 02:18:43;;;;;;;2.95;0.77;;;;;;;25.96;28.06;96262.34;5070511;28;20028;-25
2021/04/06 02:21:08;;;;;;;3.10;1.00;;;;;;;25.96;28.10;96262.34;5070046;28;20028;-27
2021/04/06 02:23:44;;;;;;;1.83;0.73;;;;;;;25.95;28.13;96265.94;5073821;28;20258;-25
2021/04/06 02:26:12;;;;;;;2.72;0.90;;;;;;;25.92;28.04;96260.84;5065577;28;20057;-24
2021/04/06 02:28:37;;;;;;;1.77;0.98;;;;;;;25.94;28.10;96259.00;5057868;28;20028;-23
2021/04/06 02:31:04;;;;;;;1.40;0.80;;;;;;;25.94;27.98;96264.25;5060293;28;20043;-24
2021/04/06 02:33:30;;;;;;;1.83;0.98;;;;;;;25.94;27.98;96253.75;5067897;28;20698;-25
2021/04/06 02:35:58;;;;;;;1.83;0.85;;;;;;;25.93;27.99;96260.75;5064890;28;20028;-22
2021/04/06 02:38:24;;;;;;;1.52;0.80;;;;;;;25.94;28.17;96262.44;5069106;28;20109;-25
2021/04/06 02:41:01;;;;;;;1.80;0.73;;;;;;;25.94;28.10;96266.88;5064352;28;20490;-22
2021/04/06 02:43:52;;;;;;;2.45;1.08;;;;;;;25.92;27.89;96259.09;5067388;28;20059;-30
2021/04/06 02:46:22;;;;;;;1.42;0.68;;;;;;;25.93;27.90;96262.56;5066490;28;20599;-23
2021/04/06 02:48:47;;;;;;;2.78;1.00;;;;;;;25.92;27.97;96261.72;5065841;28;20188;-26
2021/04/06 02:51:14;;;;;;;2.40;1.05;;;;;;;25.93;28.01;96273.06;5054673;28;20509;-26
2021/04/06 02:53:39;;;;;;;2.20;0.75;;;;;;;25.92;27.97;96256.47;5069610;28;20030;-28
2021/04/06 02:56:06;;;;;;;2.65;0.90;;;;;;;25.92;27.88;96251.22;5061910;28;20044;-23
2021/04/06 02:58:39;;;;;;;3.03;0.80;;;;;;;25.92;28.02;96250.34;5063273;28;20032;-28
2021/04/06 03:01:16;;;;;;;2.13;0.90;;;;;;;25.91;27.80;96248.69;5062629;27;20036;-28
2021/04/06 03:03:41;;;;;;;1.08;0.70;;;;;;;25.92;27.83;96250.34;5067769;28;20539;-26
2021/04/06 03:06:12;;;;;;;2.15;0.80;;;;;;;25.91;27.93;96254.78;5066657;28;20047;-24
2021/04/06 03:08:39;;;;;;;2.97;0.70;;;;;;;25.90;28.04;96247.00;5068885;28;20021;-25
2021/04/06 03:11:05;;;;;;;1.33;0.55;;;;;;;25.90;28.04;96252.25;5066058;28;20032;-22
2021/04/06 03:13:31;;;;;;;0.98;0.65;;;;;;;25.90;27.96;96241.75;5064967;28;20096;-22
2021/04/06 03:15:56;;;;;;;1.42;0.77;;;;;;;25.89;27.82;96243.53;5061124;27;20036;-25
2021/04/06 03:18:36;;;;;;;1.75;0.80;;;;;;;25.90;27.90;96231.25;5061819;28;20192;-24
2021/04/06 03:21:03;;;;;;;3.50;0.88;;;;;;;25.90;27.77;96232.06;5065398;28;20039;-24
2021/04/06 03:23:29;;;;;;;2.42;0.80;;;;;;;25.89;27.85;96240.06;5065285;28;20024;-27
2021/04/06 03:25:54;;;;;;;2.30;0.82;;;;;;;25.88;27.99;96227.84;5067146;28;20674;-26
2021/04/06 03:28:20;;;;;;;1.55;0.80;;;;;;;25.88;27.81;96233.09;5063106;28;20049;-25
2021/04/06 03:30:45;;;;;;;1.63;0.95;;;;;;;25.87;27.81;96231.44;5066770;28;20032;-23
2021/04/06 03:33:12;;;;;;;2.05;0.93;;;;;;;25.87;27.82;96232.28;5068641;28;20036;-24
2021/04/06 03:35:41;;;;;;;2.38;0.60;;;;;;;25.87;27.91;96241.94;5070986;28;20559;-25
2021/04/06 03:38:08;;;;;;;3.85;1.45;;;;;;;25.86;27.92;96230.59;5064523;28;20042;-26
2021/04/06 03:40:34;;;;;;;3.47;0.60;;;;;;;25.87;27.94;96239.31;5065544;28;20028;-26
2021/04/06 03:43:16;;;;;;;3.95;0.68;;;;;;;25.86;27.84;96241.09;5065266;28;20599;-25
2021/04/06 03:46:03;;;;;;;4.75;1.00;;;;;;;25.87;27.92;96241.94;5071470;28;20088;-24
2021/04/06 03:48:36;;;;;;;1.63;0.65;;;;;;;25.86;27.78;96243.72;5063855;28;20109;-26
2021/04/06 03:51:03;;;;;;;4.45;0.60;;;;;;;25.86;27.76;96240.25;5067650;28;20020;-23
2021/04/06 03:53:39;;;;;;;1.80;0.77;;;;;;;25.85;27.90;96233.31;5063489;28;20024;-25
2021/04/06 03:56:05;;;;;;;1.10;0.60;;;;;;;25.85;27.83;96234.16;5069705;28;20324;-23
2021/04/06 03:59:14;;;;;;;0.80;0.50;;;;;;;25.85;27.90;96230.69;5066967;28;20599;-24
2021/04/06 04:01:20;;;;;;;2.78;0.77;;;;;;;25.82;27.84;96219.44;5057808;28;20052;-25
2021/04/06 04:03:45;;;;;;;1.42;0.60;;;;;;;25.82;27.85;96224.69;5065766;28;20546;-24
2021/04/06 04:06:24;;;;;;;2.08;0.80;;;;;;;25.84;27.80;96229.84;5065555;28;20410;-26
2021/04/06 04:08:50;;;;;;;1.50;0.70;;;;;;;25.83;27.69;96226.38;5068868;28;20058;-27
2021/04/06 04:11:15;;;;;;;0.85;0.52;;;;;;;25.84;27.81;96224.59;5066909;28;20037;-27
2021/04/06 04:13:41;;;;;;;0.77;0.50;;;;;;;25.83;27.80;96234.25;5076147;28;20036;-26
2021/04/06 04:16:06;;;;;;;1.48;0.73;;;;;;;25.83;27.79;96234.25;5066901;28;20044;-24
2021/04/06 04:18:31;;;;;;;1.83;0.57;;;;;;;25.83;27.75;96236.88;5070173;28;20034;-26
2021/04/06 04:20:57;;;;;;;2.00;0.90;;;;;;;25.83;27.86;96239.50;5069649;28;20480;-26
2021/04/06 04:23:22;;;;;;;1.52;0.55;;;;;;;25.83;27.83;96241.28;5063636;28;20024;-25
2021/04/06 04:25:47;;;;;;;1.23;0.70;;;;;;;25.82;27.74;96235.19;5061298;28;20028;-26
2021/04/06 04:28:13;;;;;;;0.85;0.45;;;;;;;25.83;27.62;96236.03;5066798;28;20028;-26
2021/04/06 04:30:40;;;;;;;1.23;0.68;;;;;;;25.83;27.69;96236.03;5067548;28;20044;-27
2021/04/06 04:33:06;;;;;;;3.83;0.60;;;;;;;25.83;27.90;96236.03;5067947;28;20504;-24
2021/04/06 04:35:32;;;;;;;0.45;0.45;;;;;;;25.82;27.81;96240.44;5065353;28;20047;-24
2021/04/06 04:37:57;;;;;;;1.60;0.70;;;;;;;25.83;27.83;96236.03;5066744;28;20133;-26
2021/04/06 04:40:22;;;;;;;0.85;0.50;;;;;;;25.82;27.80;96229.94;5072680;28;20400;-27
2021/04/06 04:42:52;;;;;;;2.28;1.10;;;;;;;25.83;27.62;96230.78;5066805;28;20028;-21
2021/04/06 04:45:18;;;;;;;1.67;0.60;;;;;;;25.83;27.84;96230.78;5073304;27;20024;-27
2021/04/06 04:47:43;;;;;;;0.60;0.40;;;;;;;25.81;27.74;96228.25;5069409;28;20082;-26
2021/04/06 04:50:09;;;;;;;1.15;0.50;;;;;;;25.81;27.72;96228.25;5070852;28;20416;-30
2021/04/06 04:52:35;;;;;;;0.80;0.47;;;;;;;25.82;27.69;96239.59;5064370;28;20035;-24
2021/04/06 04:55:00;;;;;;;1.63;0.50;;;;;;;25.81;27.73;96237.91;5070362;28;20024;-26
2021/04/06 04:57:25;;;;;;;0.82;0.60;;;;;;;25.80;27.71;96244.94;5073143;28;20428;-25
2021/04/06 04:59:51;;;;;;;1.77;0.50;;;;;;;25.80;27.63;96242.31;5069984;28;20084;-28
2021/04/06 05:02:17;;;;;;;0.75;0.40;;;;;;;25.80;27.84;96241.47;5050135;28;20036;-26
2021/04/06 05:04:42;;;;;;;1.35;0.57;;;;;;;25.80;27.68;96244.94;5050377;28;21130;-23
2021/04/06 05:07:07;;;;;;;1.58;0.50;;;;;;;25.79;27.85;96251.16;5046808;28;20029;-22
2021/04/06 05:09:33;;;;;;;0.95;0.60;;;;;;;25.79;27.67;96240.66;5051917;28;20545;-23
2021/04/06 05:11:58;;;;;;;0.80;0.45;;;;;;;25.78;27.71;96241.56;5050529;28;20029;-25
2021/04/06 05:14:24;;;;;;;1.52;0.60;;;;;;;25.79;27.65;96245.91;5048310;28;20096;-29
2021/04/06 05:16:49;;;;;;;4.05;0.70;;;;;;;25.79;27.87;96245.91;5067679;28;20330;-24
2021/04/06 05:19:14;;;;;;;1.08;0.60;;;;;;;25.79;27.67;96251.16;5069886;28;20028;-25
2021/04/06 05:21:40;;;;;;;1.08;0.50;;;;;;;25.80;27.81;96251.97;5061839;28;20028;-24
2021/04/06 05:24:06;;;;;;;0.75;0.60;;;;;;;25.79;27.60;96251.16;5064061;28;20051;-25
2021/04/06 05:26:31;;;;;;;0.63;0.40;;;;;;;25.79;27.74;96245.91;5063542;28;20090;-28
2021/04/06 05:28:57;;;;;;;2.08;0.60;;;;;;;25.78;27.73;96244.19;5066492;28;20089;-26
2021/04/06 05:31:22;;;;;;;1.00;0.50;;;;;;;25.79;27.57;96245.03;5072337;27;20577;-25
2021/04/06 05:33:47;;;;;;;1.63;0.60;;;;;;;25.79;27.69;96243.28;5066738;28;20555;-24
2021/04/06 05:36:13;;;;;;;0.82;0.43;;;;;;;25.79;27.74;96245.91;5069677;28;20028;-24
2021/04/06 05:38:38;;;;;;;0.80;0.40;;;;;;;25.79;27.92;96247.66;5068578;28;20051;-26
2021/04/06 05:41:03;;;;;;;1.35;0.50;;;;;;;25.79;27.60;96245.91;5062382;28;20028;-22
2021/04/06 05:43:29;;;;;;;2.17;0.65;;;;;;;25.78;27.67;96244.19;5066199;28;20036;-26
2021/04/06 05:45:54;;;;;;;1.38;0.68;;;;;;;25.78;27.67;96238.94;5049928;28;20032;-28
2021/04/06 05:48:20;;;;;;;0.98;0.40;;;;;;;25.78;27.63;96235.50;5061859;28;20033;-23
2021/04/06 05:50:46;;;;;;;0.50;0.50;;;;;;;25.78;27.73;96236.31;5052370;28;20395;-26
2021/04/06 05:53:12;;;;;;;1.48;0.38;;;;;;;25.78;27.60;96235.50;5067450;28;20020;-27
2021/04/06 05:55:38;;;;;;;1.17;0.40;;;;;;;25.79;27.78;96235.41;5077899;28;20062;-25
2021/04/06 05:58:03;;;;;;;1.15;0.93;;;;;;;25.79;27.65;96234.53;5068484;28;20084;-27
2021/04/06 06:00:28;;;;;;;1.33;0.43;;;;;;;25.78;27.87;96233.69;5061925;28;20047;-25
2021/04/06 06:02:54;;;;;;;1.60;0.60;;;;;;;25.77;27.73;96234.63;5057979;28;20737;-27
2021/04/06 06:05:19;;;;;;;3.75;0.60;;;;;;;25.78;27.61;96235.50;5059375;28;20273;-23
2021/04/06 06:07:45;;;;;;;0.82;0.30;;;;;;;25.76;27.73;96230.31;5064370;28;20519;-24
2021/04/06 06:10:30;;;;;;;1.50;0.50;;;;;;;25.76;27.63;96227.69;5061726;28;20040;-24
2021/04/06 06:13:13;;;;;;;0.75;0.47;;;;;;;25.77;27.81;96221.50;5065305;28;20074;-25
2021/04/06 06:15:39;;;;;;;0.73;0.35;;;;;;;25.72;27.62;96220.09;5061939;27;20041;-22
2021/04/06 06:18:05;;;;;;;3.90;0.63;;;;;;;25.75;27.72;96228.66;5070004;28;20035;-24
2021/04/06 06:20:31;;;;;;;2.72;0.73;;;;;;;25.75;27.73;96236.53;5062419;28;20767;-25
2021/04/06 06:22:56;;;;;;;3.22;0.70;;;;;;;25.75;27.74;96239.16;5064491;28;20036;-23
2021/04/06 06:25:21;;;;;;;2.13;0.80;;;;;;;25.74;27.66;96237.44;5064109;28;20024;-27
2021/04/06 06:27:48;;;;;;;10.05;1.05;;;;;;;25.68;27.69;96238.69;5064347;28;20056;-21
2021/04/06 06:30:37;;;;;;;6.95;1.15;;;;;;;25.74;27.91;96250.56;5066805;28;20702;-26
2021/04/06 06:33:20;;;;;;;5.15;0.80;;;;;;;25.72;27.97;96239.31;5063844;28;20636;-25
2021/04/06 06:35:55;;;;;;;6.80;0.77;;;;;;;25.72;27.85;96247.19;5061874;28;20070;-26
2021/04/06 06:38:27;;;;;;;12.85;0.90;;;;;;;25.72;27.86;96247.19;5044109;28;597145;-25
2021/04/06 06:41:14;;;;;;;4.75;0.77;;;;;;;25.70;27.87;96251.69;5060483;28;20493;-26
2021/04/06 06:43:41;;;;;;;5.32;0.98;;;;;;;25.69;28.05;96250.00;5064172;28;20024;-25
2021/04/06 06:46:19;;;;;;;5.05;1.40;;;;;;;25.69;27.33;96239.50;5063421;28;20040;-24
2021/04/06 06:48:55;;;;;;;3.70;0.88;;;;;;;25.69;27.67;96244.75;5063490;28;21668;-26
2021/04/06 06:51:20;;;;;;;2.75;1.00;;;;;;;25.68;27.79;96233.44;5065103;28;20525;-23
2021/04/06 06:53:46;;;;;;;6.88;0.90;;;;;;;25.67;27.84;96241.41;5063737;28;20024;-24
2021/04/06 06:56:11;;;;;;;4.22;0.90;;;;;;;25.68;27.98;96237.81;5065191;28;20033;-24
2021/04/06 06:58:41;;;;;;;2.90;0.90;;;;;;;25.67;28.02;96236.97;5052223;28;20063;-24
2021/04/06 07:01:36;;;;;;;4.20;1.10;;;;;;;25.68;28.04;96237.81;5059841;27;20075;-24
2021/04/06 07:04:02;;;;;;;1.83;1.00;;;;;;;25.67;28.11;96236.16;5051563;28;20391;-25
2021/04/06 07:06:28;;;;;;;3.28;1.00;;;;;;;25.67;27.99;96236.16;5063407;28;20028;-24
2021/04/06 07:08:53;;;;;;;3.58;1.05;;;;;;;25.67;28.16;96236.16;5064987;28;20359;-25
2021/04/06 07:11:19;;;;;;;5.63;1.02;;;;;;;25.67;28.14;96234.34;5060067;28;20624;-25
2021/04/06 07:13:44;;;;;;;3.20;1.17;;;;;;;25.67;28.08;96228.28;5047306;28;20402;-23
2021/04/06 07:16:11;;;;;;;3.38;0.50;;;;;;;25.67;28.11;96230.91;5060762;28;20036;-26
2021/04/06 07:18:37;;;;;;;6.72;1.65;;;;;;;25.67;28.29;96230.91;5043404;28;20049;-27
2021/04/06 07:21:03;;;;;;;2.45;0.88;;;;;;;25.69;28.04;96236.88;5058805;28;20772;-24
2021/04/06 07:23:56;;;;;;;3.13;0.77;;;;;;;25.67;28.08;96231.72;5062558;28;20053;-24
2021/04/06 07:26:22;;;;;;;1.98;0.70;;;;;;;25.68;28.17;96222.09;5064139;28;20032;-27
2021/04/06 07:28:47;;;;;;;7.05;1.77;;;;;;;25.68;27.90;96222.09;5062109;28;20035;-26
2021/04/06 07:31:15;;;;;;;5.85;1.40;;;;;;;25.68;27.76;96232.56;5064514;28;20037;-24
2021/04/06 07:33:40;;;;;;;3.00;1.10;;;;;;;25.68;27.81;96216.84;5063334;28;20552;-22
2021/04/06 07:36:10;;;;;;;2.50;0.80;;;;;;;25.67;27.94;96221.22;5060936;28;20032;-25
2021/04/06 07:38:42;;;;;;;4.65;1.35;;;;;;;25.68;28.04;96222.09;5067514;28;20558;-28
2021/04/06 07:41:08;;;;;;;9.50;0.80;;;;;;;25.68;28.01;96228.19;5060885;28;20120;-26
2021/04/06 07:43:33;;;;;;;2.47;0.90;;;;;;;25.69;28.25;96222.00;5063995;28;20461;-24
2021/04/06 07:45:59;;;;;;;6.20;1.05;;;;;;;25.70;28.16;96217.56;5067280;27;20074;-27
2021/04/06 07:48:48;;;;;;;2.35;0.90;;;;;;;25.71;28.24;96219.28;5064007;28;20622;-26
2021/04/06 07:51:19;;;;;;;3.53;0.68;;;;;;;25.73;28.24;96217.38;5065294;28;20032;-26
2021/04/06 07:53:54;;;;;;;4.97;0.98;;;;;;;25.74;28.26;96215.63;5062711;28;20028;-24
2021/04/06 07:56:45;;;;;;;4.75;0.80;;;;;;;25.74;28.35;96213.81;5062052;28;20790;-20
2021/04/06 07:59:19;;;;;;;2.57;1.10;;;;;;;25.75;28.42;96218.16;5062249;28;20206;-24
2021/04/06 08:02:05;;;;;;;5.40;0.93;;;;;;;25.77;28.12;96218.03;5063168;28;20052;-25
2021/04/06 08:04:39;;;;;;;1.17;0.90;;;;;;;25.77;28.33;96216.25;5060418;28;20127;-23
2021/04/06 08:07:20;;;;;;;2.63;0.90;;;;;;;25.79;28.45;96219.66;5060890;28;20535;-23
2021/04/06 08:09:47;;;;;;;3.70;1.10;;;;;;;25.80;28.49;96223.94;5065428;28;20038;-26
2021/04/06 08:12:17;;;;;;;4.63;1.20;;;;;;;25.80;28.43;96216.09;5062413;28;20573;-23
2021/04/06 08:15:12;;;;;;;4.35;1.00;;;;;;;25.82;28.33;96221.25;5060967;28;20044;-24
2021/04/06 08:17:40;;;;;;;6.95;0.88;;;;;;;25.81;28.51;96217.75;5056408;28;20048;-25
2021/04/06 08:20:13;;;;;;;2.88;0.65;;;;;;;25.82;28.40;96218.63;5063005;28;20024;-26
2021/04/06 08:22:54;;;;;;;10.30;0.98;;;;;;;25.82;28.42;96222.06;5066568;28;20022;-23
2021/04/06 08:25:20;;;;;;;4.68;0.80;;;;;;;25.82;28.60;96222.06;5063862;28;20040;-24
2021/04/06 08:28:11;;;;;;;16.65;2.50;;;;;;;25.83;28.25;96217.66;5059528;28;20081;-25
2021/04/06 08:30:37;;;;;;;31.02;1.90;;;;;;;25.83;28.29;96220.28;5057808;28;20596;-25
2021/04/06 08:33:10;;;;;;;39.03;1.95;;;;;;;25.81;28.39;96223.00;5064785;28;20096;-25
2021/04/06 08:35:39;;;;;;;8.68;2.20;;;;;;;25.76;26.06;96235.56;5061669;28;20663;-25
2021/04/06 08:38:05;;;;;;;14.63;2.08;;;;;;;25.63;24.95;96227.59;5063902;28;20028;-22
2021/04/06 08:40:56;;;;;;;20.80;2.40;;;;;;;25.40;22.62;96234.25;5047307;28;20167;-21
2021/04/06 08:43:22;;;;;;;5.45;2.20;;;;;;;25.07;21.61;96233.53;5068003;28;20055;-24
2021/04/06 08:45:54;;;;;;;8.27;2.10;;;;;;;24.80;21.24;96237.63;5062495;28;20064;-25
2021/04/06 08:48:48;;;;;;;8.70;2.47;;;;;;;24.61;22.10;96235.25;5064637;28;20911;-27
2021/04/06 08:51:20;;;;;;;195.95;21.17;;;;;;;24.51;22.35;96240.16;5064856;28;20059;-23
2021/04/06 08:53:47;;;;;;;41.47;6.40;;;;;;;24.47;22.50;96241.25;5063189;28;20089;-26
2021/04/06 08:56:19;;;;;;;30.27;5.20;;;;;;;24.44;22.77;96236.19;5062713;28;20998;-27
2021/04/06 08:58:44;;;;;;;22.77;3.08;;;;;;;24.45;23.14;96240.53;5064356;28;20462;-28
2021/04/06 09:01:09;;;;;;;14.98;2.67;;;;;;;24.47;23.35;96238.63;5061051;28;20044;-25
2021/04/06 09:03:35;;;;;;;11.02;3.00;;;;;;;24.49;23.46;96234.16;5066944;28;20033;-25
2021/04/06 09:06:08;;;;;;;14.85;3.47;;;;;;;24.55;23.62;96237.38;5065728;28;20035;-27
2021/04/06 09:08:52;;;;;;;14.85;2.92;;;;;;;24.59;23.84;96241.50;5063667;28;20024;-23
2021/04/06 09:11:19;;;;;;;17.45;3.13;;;;;;;24.65;24.00;96249.00;5062580;28;20063;-22
2021/04/06 09:13:45;;;;;;;15.55;2.70;;;;;;;24.69;24.13;96241.81;5064463;28;20040;-25
2021/04/06 09:16:11;;;;;;;13.23;2.83;;;;;;;24.74;24.00;96251.09;5069413;28;20082;-26
2021/04/06 09:18:37;;;;;;;14.32;2.30;;;;;;;24.79;24.31;96241.19;5057121;28;20036;-27
2021/04/06 09:21:06;;;;;;;12.95;2.90;;;;;;;24.83;24.58;96241.88;5065651;28;20614;-25
2021/04/06 09:23:32;;;;;;;9.48;2.40;;;;;;;24.87;24.38;96239.94;5070443;28;20407;-24
2021/04/06 09:25:58;;;;;;;10.15;2.40;;;;;;;24.91;24.59;96244.09;5071486;28;20103;-26
2021/04/06 09:28:23;;;;;;;18.17;3.17;;;;;;;24.95;24.84;96240.34;5069076;28;20410;-25
2021/04/06 09:30:48;;;;;;;9.73;2.35;;;;;;;24.98;24.75;96231.47;5068685;27;20031;-26
2021/04/06 09:33:17;;;;;;;10.05;2.20;;;;;;;25.03;24.73;96232.88;5072850;28;20040;-25
2021/04/06 09:35:47;;;;;;;12.10;2.75;;;;;;;25.07;24.84;96228.28;5076531;28;20549;-27
2021/04/06 09:38:14;;;;;;;13.18;2.10;;;;;;;25.12;25.13;96238.50;5073406;28;20187;-25
2021/04/06 09:40:40;;;;;;;5.85;2.17;;;;;;;25.15;25.16;96231.31;5065003;28;20046;-25
2021/04/06 09:43:06;;;;;;;7.30;1.70;;;;;;;25.20;25.14;96233.63;5066194;28;20416;-24
2021/04/06 09:45:32;;;;;;;8.90;2.28;;;;;;;25.22;25.16;96237.03;5054919;28;20032;-25
2021/04/06 09:47:57;;;;;;;10.38;2.17;;;;;;;25.25;25.39;96234.19;5073463;28;20630;-27
2021/04/06 09:50:23;;;;;;;9.70;2.33;;;;;;;25.27;25.38;96234.97;5054197;28;20024;-25
2021/04/06 09:52:49;;;;;;;6.97;1.70;;;;;;;25.30;25.56;96234.78;5071801;28;20081;-25
2021/04/06 09:55:16;;;;;;;6.10;1.77;;;;;;;25.33;25.34;96233.75;5066459;28;20623;-27
2021/04/06 09:57:46;;;;;;;8.35;1.90;;;;;;;25.36;25.71;96232.72;5064189;28;20522;-26
2021/04/06 10:00:14;;;;;;;7.45;2.05;;;;;;;25.38;25.84;96230.84;5056524;28;20021;-22
2021/04/06 10:02:39;;;;;;;9.32;1.65;;;;;;;25.39;25.77;96227.28;5064103;28;20075;-28
2021/04/06 10:05:16;;;;;;;6.45;1.77;;;;;;;25.42;25.75;96221.88;5060755;28;20504;-25
2021/04/06 10:07:45;;;;;;;7.70;2.00;;;;;;;25.44;25.96;96225.25;5058673;28;20050;-23
2021/04/06 10:10:25;;;;;;;5.72;1.58;;;;;;;25.48;25.99;96226.75;5070900;27;20781;-24
2021/04/06 10:12:51;;;;;;;9.75;1.73;;;;;;;25.49;25.91;96228.44;5072362;28;20028;-26
2021/04/06 10:15:24;;;;;;;8.40;2.28;;;;;;;25.52;26.08;96222.97;5075779;27;20048;-25
2021/04/06 10:17:50;;;;;;;8.50;2.20;;;;;;;25.54;25.90;96215.88;5062670;28;20055;-25
2021/04/06 10:20:20;;;;;;;8.95;1.73;;;;;;;25.56;26.05;96214.00;5059302;28;20047;-25
2021/04/06 10:22:52;;;;;;;5.53;1.65;;;;;;;25.60;25.98;96213.84;5064132;28;22322;-26
2021/04/06 10:25:20;;;;;;;15.15;1.92;;;;;;;25.62;26.04;96211.97;5059503;28;20055;-24
2021/04/06 10:27:55;;;;;;;6.88;2.33;;;;;;;25.62;26.30;96209.34;5062421;28;20522;-25
2021/04/06 10:30:31;;;;;;;9.25;1.88;;;;;;;25.64;26.07;96210.09;5058823;28;20028;-28
2021/04/06 10:33:10;;;;;;;4.85;1.42;;;;;;;25.64;26.42;96203.06;5056511;28;20063;-22
2021/04/06 10:35:58;;;;;;;10.93;1.85;;;;;;;25.67;26.48;96209.91;5059412;28;20036;-24
2021/04/06 10:38:34;;;;;;;6.93;1.40;;;;;;;25.69;26.55;96208.00;5060034;28;20060;-26
2021/04/06 10:41:03;;;;;;;5.45;1.48;;;;;;;25.70;26.44;96204.44;5070226;28;20035;-25
2021/04/06 10:43:28;;;;;;;10.20;1.63;;;;;;;25.71;26.56;96206.16;5068489;28;20422;-26
2021/04/06 10:46:04;;;;;;;5.57;1.85;;;;;;;25.72;26.54;96205.22;5057989;28;20040;-28
2021/04/06 10:48:33;;;;;;;9.27;1.73;;;;;;;25.75;26.82;96209.44;5068443;28;20039;-25
2021/04/06 10:51:00;;;;;;;5.45;1.20;;;;;;;25.76;26.65;96204.09;5064673;28;20366;-29
2021/04/06 10:53:30;;;;;;;6.90;1.67;;;;;;;25.76;26.62;96201.47;5058935;28;20044;-23
2021/04/06 10:56:07;;;;;;;6.53;1.50;;;;;;;25.74;26.75;96194.63;5059830;28;20031;-23
2021/04/06 10:58:43;;;;;;;5.90;1.20;;;;;;;25.81;26.65;96207.25;5057656;28;20028;-25
2021/04/06 11:01:10;;;;;;;4.00;1.25;;;;;;;25.82;26.82;96206.31;5056819;28;20074;-24
2021/04/06 11:03:51;;;;;;;8.23;1.70;;;;;;;25.82;26.79;96201.06;5063850;28;20032;-27
2021/04/06 11:06:20;;;;;;;5.55;1.10;;;;;;;25.85;26.89;96196.56;5064853;28;20024;-24
2021/04/06 11:08:49;;;;;;;9.88;1.67;;;;;;;25.85;26.80;96186.06;5075332;28;20406;-24
2021/04/06 11:11:26;;;;;;;6.55;1.40;;;;;;;25.85;27.06;96186.91;5062518;28;20027;-27
2021/04/06 11:13:51;;;;;;;8.38;1.83;;;;;;;25.86;26.99;96182.50;5064639;28;20543;-25
2021/04/06 11:16:17;;;;;;;5.20;1.30;;;;;;;25.86;27.04;96186.00;5067177;28;20044;-26
2021/04/06 11:18:42;;;;;;;5.45;1.60;;;;;;;25.87;27.17;96187.66;5057448;28;20040;-26
2021/04/06 11:21:08;;;;;;;4.15;1.98;;;;;;;25.89;27.18;96187.56;5067534;28;20023;-25
2021/04/06 11:23:34;;;;;;;10.65;1.20;;;;;;;25.90;27.09;96184.00;5066577;28;20027;-25
2021/04/06 11:25:59;;;;;;;7.20;1.20;;;;;;;25.90;27.06;96168.25;5065129;28;20680;-24
2021/04/06 11:28:25;;;;;;;5.32;1.45;;;;;;;25.91;27.19;96170.78;5060250;28;20094;-26
2021/04/06 11:30:50;;;;;;;3.67;1.13;;;;;;;25.93;27.07;96168.06;5060891;28;20420;-29
2021/04/06 11:33:16;;;;;;;7.30;1.50;;;;;;;25.94;27.18;96169.75;5036847;28;20024;-28
2021/04/06 11:35:41;;;;;;;5.13;1.20;;;;;;;25.96;26.97;96167.84;5031972;28;20036;-29
2021/04/06 11:38:07;;;;;;;3.38;1.35;;;;;;;25.98;27.31;96167.75;5059086;28;20039;-29
2021/04/06 11:40:32;;;;;;;4.15;1.42;;;;;;;25.97;27.14;96164.28;5061827;28;20032;-23